createdAt,value
2022-09-05T00:01:58.300Z,100.00
2022-09-05T00:05:17.542Z,100.00
2022-09-05T00:08:44.085Z,100.00
2022-09-05T00:11:53.346Z,100.00
2022-09-05T00:15:33.590Z,100.00
2022-09-05T00:24:22.790Z,100.00
2022-09-05T00:24:26.254Z,100.00
2022-09-05T00:26:28.831Z,100.00
2022-09-05T00:31:05.996Z,100.00
2022-09-05T00:34:10.137Z,100.00
2022-09-05T00:37:10.081Z,100.00
2022-09-05T00:40:35.570Z,100.00
2022-09-05T00:43:38.191Z,100.00
2022-09-05T00:46:47.422Z,100.00
2022-09-05T00:49:52.338Z,100.00
2022-09-05T00:53:07.541Z,100.00
2022-09-05T00:56:26.126Z,100.00
2022-09-05T01:00:07.062Z,100.00
2022-09-05T01:03:17.770Z,100.00
2022-09-05T01:06:29.563Z,100.00
2022-09-05T01:09:39.964Z,100.00
2022-09-05T01:13:22.477Z,100.00
2022-09-05T01:16:56.115Z,100.00
2022-09-05T01:20:38.542Z,100.00
2022-09-05T01:24:13.975Z,100.00
2022-09-05T01:29:15.491Z,100.00
2022-09-05T01:31:26.786Z,100.00
2022-09-05T01:35:23.254Z,100.00
2022-09-05T01:39:51.633Z,100.00
2022-09-05T01:42:26.248Z,100.00
2022-09-05T01:45:52.115Z,100.00
2022-09-05T01:49:10.355Z,100.00
2022-09-05T01:52:33.640Z,100.00
2022-09-05T01:56:21.713Z,100.00
2022-09-05T01:59:56.851Z,100.00
2022-09-05T02:03:34.065Z,100.00
2022-09-05T02:07:30.204Z,100.00
2022-09-05T02:10:51.887Z,100.00
2022-09-05T02:14:00.262Z,100.00
2022-09-05T02:17:51.294Z,100.00
2022-09-05T02:21:21.620Z,100.00
2022-09-05T02:24:23.731Z,100.00
2022-09-05T02:28:05.636Z,100.00
2022-09-05T02:31:19.760Z,100.00
2022-09-05T02:34:54.172Z,100.00
2022-09-05T02:40:26.255Z,100.00
2022-09-05T02:45:18.108Z,100.00
2022-09-05T02:46:08.873Z,100.00
2022-09-05T02:52:14.293Z,100.00
2022-09-05T02:57:33.495Z,100.00
2022-09-05T02:57:46.895Z,100.00
2022-09-05T03:00:15.098Z,100.00
2022-09-05T03:03:28.844Z,100.00
2022-09-05T03:06:40.224Z,100.00
2022-09-05T03:10:39.674Z,100.00
2022-09-05T03:14:36.246Z,100.00
2022-09-05T03:18:20.281Z,100.00
2022-09-05T03:21:55.984Z,100.00
2022-09-05T03:25:10.946Z,100.00
2022-09-05T03:28:57.197Z,100.00
2022-09-05T03:32:08.375Z,100.00
2022-09-05T03:35:51.678Z,100.00
2022-09-05T03:39:07.777Z,100.00
2022-09-05T03:42:40.882Z,100.00
2022-09-05T03:46:21.398Z,100.00
2022-09-05T03:57:04.222Z,100.00
2022-09-05T03:57:25.335Z,100.00
2022-09-05T03:58:03.452Z,100.00
2022-09-05T04:06:11.643Z,100.00
2022-09-05T04:08:19.423Z,100.00
2022-09-05T04:08:57.070Z,100.00
2022-09-05T04:12:15.522Z,100.00
2022-09-05T04:15:46.303Z,100.00
2022-09-05T04:18:53.705Z,100.00
2022-09-05T04:22:03.164Z,100.00
2022-09-05T04:25:23.122Z,100.00
2022-09-05T04:28:42.976Z,100.00
2022-09-05T04:32:28.277Z,100.00
2022-09-05T04:35:59.246Z,100.00
2022-09-05T04:39:22.829Z,100.00
2022-09-05T04:42:28.356Z,100.00
2022-09-05T04:45:27.240Z,100.00
2022-09-05T04:48:34.427Z,100.00
2022-09-05T04:52:02.777Z,100.00
2022-09-05T04:55:15.880Z,100.00
2022-09-05T05:00:54.307Z,100.00
2022-09-05T05:06:05.571Z,100.00
2022-09-05T05:06:09.962Z,100.00
2022-09-05T05:09:44.866Z,100.00
2022-09-05T05:17:59.775Z,100.00
2022-09-05T05:18:13.922Z,100.00
2022-09-05T05:20:39.759Z,100.00
2022-09-05T05:23:50.636Z,100.00
2022-09-05T05:27:09.394Z,100.00
2022-09-05T05:30:08.570Z,100.00
2022-09-05T05:33:38.473Z,100.00
2022-09-05T05:36:40.575Z,100.00
2022-09-05T05:39:45.274Z,100.00
2022-09-05T05:42:44.535Z,100.00
2022-09-05T05:45:42.054Z,100.00
2022-09-05T05:48:40.928Z,100.00
2022-09-05T05:52:07.233Z,100.00
2022-09-05T05:55:52.853Z,100.00
2022-09-05T05:59:28.613Z,100.00
2022-09-05T06:02:47.519Z,100.00
2022-09-05T06:06:32.340Z,100.00
2022-09-05T06:14:48.389Z,100.00
2022-09-05T06:15:05.859Z,100.00
2022-09-05T06:17:28.245Z,100.00
2022-09-05T06:22:11.513Z,100.00
2022-09-05T06:25:17.112Z,100.00
2022-09-05T06:28:30.613Z,100.00
2022-09-05T06:32:30.161Z,100.00
2022-09-05T06:35:36.024Z,100.00
2022-09-05T06:39:18.937Z,100.00
2022-09-05T06:42:42.733Z,100.00
2022-09-05T06:46:07.035Z,100.00
2022-09-05T06:49:32.163Z,100.00
2022-09-05T06:53:07.096Z,100.00
2022-09-05T06:56:39.893Z,100.00
2022-09-05T07:00:23.051Z,100.00
2022-09-05T07:03:47.456Z,100.00
2022-09-05T07:07:22.972Z,100.00
2022-09-05T07:10:39.345Z,100.00
2022-09-05T07:14:16.819Z,100.00
2022-09-05T07:17:26.984Z,100.00
2022-09-05T07:20:34.222Z,100.00
2022-09-05T07:24:09.775Z,100.00
2022-09-05T07:27:11.112Z,100.00
2022-09-05T07:30:11.783Z,100.00
2022-09-05T07:33:09.345Z,100.00
2022-09-05T07:36:14.352Z,100.00
2022-09-05T07:39:28.908Z,100.00
2022-09-05T07:42:36.442Z,100.00
2022-09-05T07:45:37.780Z,100.00
2022-09-05T07:48:48.042Z,100.00
2022-09-05T07:56:54.606Z,100.00
2022-09-05T07:57:06.272Z,100.00
2022-09-05T07:58:52.507Z,100.00
2022-09-05T08:01:53.250Z,100.00
2022-09-05T08:04:50.277Z,100.00
2022-09-05T08:07:55.955Z,100.00
2022-09-05T08:11:23.246Z,100.00
2022-09-05T08:14:44.926Z,100.00
2022-09-05T08:18:21.415Z,100.00
2022-09-05T08:21:48.254Z,100.00
2022-09-05T08:24:57.549Z,100.00
2022-09-05T08:28:16.557Z,100.00
2022-09-05T08:31:34.842Z,100.00
2022-09-05T08:34:59.500Z,100.00
2022-09-05T08:37:57.951Z,100.00
2022-09-05T08:41:49.713Z,100.00
2022-09-05T08:46:47.395Z,100.00
2022-09-05T08:48:59.333Z,100.00
2022-09-05T08:52:25.882Z,100.00
2022-09-05T08:55:43.248Z,100.00
2022-09-05T08:59:31.613Z,100.00
2022-09-05T09:03:04.506Z,100.00
2022-09-05T09:06:32.364Z,100.00
2022-09-05T09:09:53.103Z,100.00
2022-09-05T09:13:52.402Z,100.00
2022-09-05T09:17:17.101Z,100.00
2022-09-05T09:20:45.321Z,100.00
2022-09-05T09:23:51.163Z,100.00
2022-09-05T09:28:45.086Z,100.00
2022-09-05T09:31:12.955Z,100.00
2022-09-05T09:34:32.759Z,100.00
2022-09-05T09:38:13.582Z,100.00
2022-09-05T09:41:37.867Z,100.00
2022-09-05T09:45:27.703Z,100.00
2022-09-05T09:49:09.558Z,100.00
2022-09-05T09:52:38.113Z,100.00
2022-09-05T09:56:06.973Z,100.00
2022-09-05T09:59:54.253Z,100.00
2022-09-05T10:07:17.044Z,100.00
2022-09-05T10:10:54.451Z,100.00
2022-09-05T10:11:52.879Z,100.00
2022-09-05T10:15:43.334Z,100.00
2022-09-05T10:23:30.629Z,100.00
2022-09-05T10:26:41.133Z,100.00
2022-09-05T10:30:10.984Z,97.02
2022-09-05T10:35:18.286Z,100.00
2022-09-05T10:37:11.679Z,96.13
2022-09-05T10:40:14.063Z,100.00
2022-09-05T10:43:29.886Z,100.00
2022-09-05T10:47:07.580Z,100.00
2022-09-05T10:50:13.359Z,99.21
2022-09-05T10:53:52.396Z,100.00
2022-09-05T10:57:34.000Z,100.00
2022-09-05T11:02:26.864Z,95.79
2022-09-05T11:05:19.338Z,95.03
2022-09-05T11:08:56.382Z,97.97
2022-09-05T11:12:32.670Z,100.00
2022-09-05T11:16:03.940Z,97.04
2022-09-05T11:19:38.144Z,91.91
2022-09-05T11:22:40.585Z,99.52
2022-09-05T11:25:41.063Z,93.10
2022-09-05T11:28:57.629Z,96.34
2022-09-05T11:36:17.547Z,100.00
2022-09-05T11:39:52.981Z,88.68
2022-09-05T11:40:35.091Z,81.92
2022-09-05T11:44:25.599Z,80.84
2022-09-05T11:47:46.461Z,87.01
2022-09-05T11:51:05.396Z,73.87
2022-09-05T11:55:21.367Z,72.98
2022-09-05T11:59:04.899Z,74.35
2022-09-05T12:02:54.421Z,92.59
2022-09-05T12:06:19.560Z,77.36
2022-09-05T12:09:53.589Z,63.36
2022-09-05T12:13:26.490Z,70.72
2022-09-05T12:16:56.664Z,57.02
2022-09-05T12:20:32.715Z,63.69
2022-09-05T12:24:50.057Z,58.07
2022-09-05T12:27:40.394Z,72.35
2022-09-05T12:31:29.672Z,59.11
2022-09-05T12:36:06.213Z,55.72
2022-09-05T12:40:54.720Z,55.86
2022-09-05T12:41:44.509Z,53.13
2022-09-05T12:45:11.909Z,66.38
2022-09-05T12:48:50.712Z,71.54
2022-09-05T12:52:05.118Z,89.76
2022-09-05T12:55:22.366Z,85.44
2022-09-05T13:03:01.811Z,82.86
2022-09-05T13:03:09.053Z,72.32
2022-09-05T13:05:22.118Z,62.49
2022-09-05T13:08:22.229Z,87.78
2022-09-05T13:14:48.560Z,67.02
2022-09-05T13:15:18.634Z,75.18
2022-09-05T13:18:30.813Z,67.63
2022-09-05T13:21:29.900Z,68.24
2022-09-05T13:24:34.297Z,52.40
2022-09-05T13:27:40.733Z,48.50
2022-09-05T13:36:08.661Z,48.38
2022-09-05T13:38:12.952Z,70.77
2022-09-05T13:38:28.994Z,59.60
2022-09-05T13:41:53.080Z,63.81
2022-09-05T13:44:57.115Z,72.25
2022-09-05T13:49:24.020Z,69.71
2022-09-05T13:52:17.631Z,69.45
2022-09-05T13:55:38.140Z,58.94
2022-09-05T13:58:45.428Z,59.29
2022-09-05T14:02:25.377Z,58.47
2022-09-05T14:05:38.843Z,60.26
2022-09-05T14:12:49.212Z,63.17
2022-09-05T14:15:52.577Z,67.42
2022-09-05T14:19:09.467Z,62.56
2022-09-05T14:22:11.465Z,68.84
2022-09-05T14:25:29.509Z,75.38
2022-09-05T14:28:34.283Z,84.42
2022-09-05T14:36:33.481Z,80.44
2022-09-05T14:37:41.132Z,87.30
2022-09-05T14:39:05.303Z,74.15
2022-09-05T14:42:23.955Z,77.63
2022-09-05T14:45:46.088Z,75.09
2022-09-05T14:49:18.735Z,71.36
2022-09-05T14:52:25.954Z,74.60
2022-09-05T14:55:22.959Z,77.21
2022-09-05T15:02:41.282Z,77.12
2022-09-05T15:02:54.724Z,70.22
2022-09-05T15:05:50.084Z,69.15
2022-09-05T15:11:25.667Z,69.80
2022-09-05T15:12:39.707Z,68.54
2022-09-05T15:15:57.542Z,72.51
2022-09-05T15:18:59.551Z,69.11
2022-09-05T15:21:56.525Z,79.28
2022-09-05T15:25:18.324Z,75.98
2022-09-05T15:28:41.807Z,77.61
2022-09-05T15:31:39.851Z,96.71
2022-09-05T15:34:38.541Z,79.06
2022-09-05T15:37:42.329Z,81.50
2022-09-05T15:40:39.257Z,74.80
2022-09-05T15:43:58.222Z,81.42
2022-09-05T15:47:01.655Z,81.90
2022-09-05T15:50:03.832Z,82.18
2022-09-05T15:53:01.359Z,79.92
2022-09-05T15:56:26.272Z,79.98
2022-09-05T15:59:29.222Z,75.30
2022-09-05T16:02:38.167Z,83.93
2022-09-05T16:10:27.396Z,80.27
2022-09-05T16:10:38.652Z,90.32
2022-09-05T16:12:50.407Z,100.00
2022-09-05T16:20:34.583Z,79.12
2022-09-05T16:23:25.292Z,77.56
2022-09-05T16:23:32.506Z,90.17
2022-09-05T16:26:25.646Z,100.00
2022-09-05T16:29:28.163Z,100.00
2022-09-05T16:32:29.565Z,100.00
2022-09-05T16:35:26.987Z,100.00
2022-09-05T16:38:38.134Z,100.00
2022-09-05T16:42:02.317Z,100.00
2022-09-05T16:45:24.626Z,100.00
2022-09-05T16:49:18.531Z,100.00
2022-09-05T16:52:53.175Z,100.00
2022-09-05T16:56:13.585Z,100.00
2022-09-05T16:59:17.705Z,100.00
2022-09-05T17:03:03.284Z,100.00
2022-09-05T17:06:40.491Z,100.00
2022-09-05T17:09:43.564Z,100.00
2022-09-05T17:12:41.234Z,100.00
2022-09-05T17:15:52.210Z,100.00
2022-09-05T17:18:52.617Z,100.00
2022-09-05T17:23:05.824Z,100.00
2022-09-05T17:29:28.584Z,100.00
2022-09-05T17:29:32.370Z,100.00
2022-09-05T17:32:39.777Z,100.00
2022-09-05T17:36:41.197Z,100.00
2022-09-05T17:40:22.406Z,100.00
2022-09-05T17:43:33.561Z,100.00
2022-09-05T17:46:34.248Z,100.00
2022-09-05T17:49:42.974Z,100.00
2022-09-05T17:53:25.841Z,100.00
2022-09-05T17:56:33.569Z,100.00
2022-09-05T17:59:31.460Z,100.00
2022-09-05T18:02:33.412Z,100.00
2022-09-05T18:06:03.653Z,100.00
2022-09-05T18:09:09.054Z,100.00
2022-09-05T18:12:31.596Z,100.00
2022-09-05T18:15:43.842Z,100.00
2022-09-05T18:19:27.859Z,100.00
2022-09-05T18:22:20.177Z,100.00
2022-09-05T18:25:28.399Z,100.00
2022-09-05T18:28:41.511Z,100.00
2022-09-05T18:31:40.998Z,100.00
2022-09-05T18:34:41.495Z,100.00
2022-09-05T18:37:39.390Z,100.00
2022-09-05T18:40:53.279Z,100.00
2022-09-05T18:44:19.852Z,100.00
2022-09-05T18:47:51.281Z,100.00
2022-09-05T18:51:15.611Z,100.00
2022-09-05T18:54:20.102Z,100.00
2022-09-05T18:57:28.850Z,100.00
2022-09-05T19:00:44.868Z,100.00
2022-09-05T19:03:45.360Z,100.00
2022-09-05T19:06:48.441Z,100.00
2022-09-05T19:10:34.429Z,100.00
2022-09-05T19:13:35.915Z,100.00
2022-09-05T19:16:47.297Z,100.00
2022-09-05T19:20:30.573Z,100.00
2022-09-05T19:23:33.256Z,100.00
2022-09-05T19:26:33.725Z,100.00
2022-09-05T19:36:49.970Z,100.00
2022-09-05T19:37:08.703Z,100.00
2022-09-05T19:37:12.706Z,100.00
2022-09-05T19:42:42.094Z,100.00
2022-09-05T19:47:42.234Z,100.00
2022-09-05T19:47:55.814Z,100.00
2022-09-05T19:49:37.144Z,100.00
2022-09-05T19:52:39.446Z,100.00
2022-09-05T19:55:38.531Z,100.00
2022-09-05T19:58:35.380Z,100.00
2022-09-05T20:01:32.359Z,100.00
2022-09-05T20:04:44.192Z,100.00
2022-09-05T20:07:51.127Z,100.00
2022-09-05T20:10:59.502Z,100.00
2022-09-05T20:14:42.681Z,100.00
2022-09-05T20:17:43.039Z,100.00
2022-09-05T20:21:07.244Z,100.00
2022-09-05T20:24:04.301Z,100.00
2022-09-05T20:27:02.279Z,100.00
2022-09-05T20:30:10.212Z,100.00
2022-09-05T20:33:35.676Z,100.00
2022-09-05T20:43:08.132Z,100.00
2022-09-05T20:43:14.583Z,100.00
2022-09-05T20:43:40.186Z,100.00
2022-09-05T20:54:08.168Z,100.00
2022-09-05T20:54:09.466Z,100.00
2022-09-05T20:54:26.432Z,100.00
2022-09-05T20:57:00.232Z,100.00
2022-09-05T21:00:16.667Z,100.00
2022-09-05T21:03:31.326Z,100.00
2022-09-05T21:06:34.811Z,100.00
2022-09-05T21:09:32.308Z,100.00
2022-09-05T21:12:45.200Z,100.00
2022-09-05T21:15:52.928Z,100.00
2022-09-05T21:18:51.838Z,100.00
2022-09-05T21:22:02.193Z,100.00
2022-09-05T21:25:22.363Z,100.00
2022-09-05T21:28:36.584Z,100.00
2022-09-05T21:31:45.725Z,100.00
2022-09-05T21:34:53.730Z,100.00
2022-09-05T21:37:51.157Z,100.00
2022-09-05T21:40:52.706Z,100.00
2022-09-05T21:47:33.786Z,100.00
2022-09-05T21:47:49.746Z,100.00
2022-09-05T21:50:31.143Z,100.00
2022-09-05T21:57:00.418Z,100.00
2022-09-05T21:59:25.705Z,100.00
2022-09-05T22:00:20.350Z,100.00
2022-09-05T22:03:24.405Z,100.00
2022-09-05T22:06:21.354Z,100.00
2022-09-05T22:09:19.945Z,100.00
2022-09-05T22:12:30.086Z,100.00
2022-09-05T22:15:29.590Z,100.00
2022-09-05T22:18:26.518Z,100.00
2022-09-05T22:21:35.112Z,100.00
2022-09-05T22:24:34.691Z,100.00
2022-09-05T22:27:33.700Z,100.00
2022-09-05T22:30:30.554Z,100.00
2022-09-05T22:33:27.472Z,100.00
2022-09-05T22:36:26.272Z,100.00
2022-09-05T22:39:36.295Z,100.00
2022-09-05T22:42:34.025Z,100.00
2022-09-05T22:45:33.160Z,100.00
2022-09-05T22:48:30.208Z,100.00
2022-09-05T22:51:27.020Z,100.00
2022-09-05T22:54:23.952Z,100.00
2022-09-05T22:57:20.778Z,100.00
2022-09-05T23:00:17.794Z,100.00
2022-09-05T23:03:14.649Z,100.00
2022-09-05T23:06:11.554Z,100.00
2022-09-05T23:09:09.810Z,100.00
2022-09-05T23:12:06.799Z,100.00
2022-09-05T23:15:04.244Z,100.00
2022-09-05T23:18:02.240Z,100.00
2022-09-05T23:21:04.274Z,100.00
2022-09-05T23:24:01.116Z,100.00
2022-09-05T23:26:58.019Z,100.00
2022-09-05T23:29:54.853Z,100.00
2022-09-05T23:32:52.234Z,100.00
2022-09-05T23:35:49.056Z,100.00
2022-09-05T23:38:45.903Z,100.00
2022-09-05T23:41:42.711Z,100.00
2022-09-05T23:44:39.547Z,100.00
2022-09-05T23:47:37.201Z,100.00
2022-09-05T23:50:34.030Z,100.00
2022-09-05T23:53:30.881Z,100.00
2022-09-05T23:56:27.719Z,100.00
2022-09-05T23:59:24.548Z,100.00
